Terminal Aerodrome Forecast
Issued by NWS

Current Version | Previous Version | Graphics & Text | Print | Product List | Glossary On
Versions: 1 2 3 4 5 6 7 8 9 10 11 12 13 14 15 16 17 18
000
FTUS41 KRNK 161120
TAFLWB
TAF
KLWB 161120Z 1612/1712 27008KT P6SM BKN040
     FM161600 29014G26KT P6SM SCT050
     FM161800 29013G25KT P6SM BKN050
     FM162300 31008KT P6SM FEW040
     FM170700 VRB03KT P6SM SCT250=

USA.gov is the U.S. government's official web portal to all federal, state and local government web resources and services.